Time;durP1;ratioP1;P1;durP2;ratioP2;P2;SDS_P1;SDS_P2;PMS_P1;PMS_P2;Temp;Humidity;BMP_temperature;BMP_pressure;BME280_temperature;BME280_humidity;BME280_pressure;Samples;Min_cycle;Max_cycle;Signal;HPM_P1;HPM_P2
2022/08/05 00:01:57;;;;;;;4.20;3.90;;;22.00;67.90;;;;;;5044862;28;20210;-88
2022/08/05 00:04:24;;;;;;;6.13;4.97;;;22.00;68.10;;;;;;5052709;28;20214;-89
2022/08/05 00:06:52;;;;;;;6.68;4.22;;;22.00;68.90;;;;;;5051165;28;20216;-89
2022/08/05 00:09:19;;;;;;;6.13;4.70;;;21.90;68.80;;;;;;5052011;28;20201;-89
2022/08/05 00:11:46;;;;;;;5.55;4.53;;;21.90;69.20;;;;;;5050327;28;20222;-89
2022/08/05 00:14:18;;;;;;;4.70;4.30;;;21.90;69.60;;;;;;5052284;28;20671;-89
2022/08/05 00:16:45;;;;;;;5.30;4.30;;;21.90;69.70;;;;;;5047527;28;20207;-88
2022/08/05 00:19:12;;;;;;;5.47;4.15;;;21.80;69.60;;;;;;5041936;28;20198;-88
2022/08/05 00:21:38;;;;;;;7.13;4.32;;;21.80;69.60;;;;;;5050398;28;20198;-88
2022/08/05 00:24:08;;;;;;;4.88;4.47;;;21.80;69.30;;;;;;5050774;28;20198;-89
2022/08/05 00:26:35;;;;;;;4.63;4.28;;;21.80;70.10;;;;;;5047901;28;20202;-89
2022/08/05 00:29:02;;;;;;;4.75;4.38;;;21.60;70.30;;;;;;5050382;28;20216;-88
2022/08/05 00:31:29;;;;;;;4.60;4.20;;;21.50;71.90;;;;;;5049522;28;20228;-88
2022/08/05 00:33:56;;;;;;;5.25;4.75;;;21.30;73.80;;;;;;5044085;28;20202;-89
2022/08/05 00:36:24;;;;;;;5.35;4.20;;;21.30;73.80;;;;;;5051662;28;20657;-88
2022/08/05 00:38:54;;;;;;;5.07;4.45;;;21.30;73.10;;;;;;5049337;28;20233;-89
2022/08/05 00:41:30;;;;;;;7.90;4.47;;;21.20;73.30;;;;;;5050878;28;20645;-88
2022/08/05 00:43:56;;;;;;;6.35;4.45;;;21.20;74.30;;;;;;5045162;28;20727;-88
2022/08/05 00:46:24;;;;;;;5.05;4.40;;;21.20;75.00;;;;;;5049847;28;20244;-88
2022/08/05 00:48:51;;;;;;;5.32;4.63;;;21.20;75.40;;;;;;5050035;28;20575;-88
2022/08/05 00:51:19;;;;;;;6.35;4.80;;;21.30;75.00;;;;;;5050167;28;20205;-89
2022/08/05 00:53:45;;;;;;;5.00;4.55;;;21.30;74.60;;;;;;5042070;28;20205;-88
2022/08/05 00:56:18;;;;;;;4.82;4.40;;;21.20;74.30;;;;;;5045771;28;20675;-88
2022/08/05 00:58:46;;;;;;;6.05;4.47;;;21.10;75.10;;;;;;5051551;28;20198;-88
2022/08/05 01:01:15;;;;;;;5.65;4.53;;;21.00;75.60;;;;;;5049580;28;20205;-89
2022/08/05 01:03:43;;;;;;;4.53;4.13;;;21.00;75.80;;;;;;5048218;28;20198;-88
2022/08/05 01:06:11;;;;;;;4.80;4.32;;;20.90;75.60;;;;;;5052187;28;20206;-89
2022/08/05 01:08:41;;;;;;;4.90;4.30;;;20.90;75.30;;;;;;5054451;28;20202;-88
2022/08/05 01:11:13;;;;;;;5.47;4.55;;;20.90;75.00;;;;;;5057105;28;20205;-88
2022/08/05 01:13:52;;;;;;;4.53;4.13;;;20.90;75.60;;;;;;5055228;28;20206;-88
2022/08/05 01:16:24;;;;;;;4.90;4.40;;;20.90;75.60;;;;;;5065089;28;20212;-88
2022/08/05 01:18:57;;;;;;;5.45;4.18;;;20.80;75.60;;;;;;5057682;28;20540;-89
2022/08/05 01:21:52;;;;;;;4.57;4.18;;;20.80;75.40;;;;;;5056211;28;20201;-89
2022/08/05 01:24:35;;;;;;;7.00;4.78;;;20.80;75.70;;;;;;5055332;28;20213;-89
2022/08/05 01:27:13;;;;;;;4.90;4.40;;;21.00;75.60;;;;;;5060337;28;20210;-89
2022/08/05 01:29:46;;;;;;;5.15;4.68;;;21.10;74.10;;;;;;5051023;28;20209;-89
2022/08/05 01:32:20;;;;;;;5.30;4.47;;;21.20;73.80;;;;;;5050485;28;20229;-89
2022/08/05 01:34:51;;;;;;;4.68;4.07;;;21.30;73.60;;;;;;5052015;28;20669;-89
2022/08/05 01:37:19;;;;;;;4.88;4.38;;;21.20;73.20;;;;;;5053188;28;20202;-88
2022/08/05 01:39:53;;;;;;;5.65;4.70;;;21.20;74.60;;;;;;5053568;28;20214;-88
2022/08/05 01:42:21;;;;;;;4.78;3.97;;;21.20;73.80;;;;;;5057522;28;20689;-88
2022/08/05 01:44:56;;;;;;;5.72;4.43;;;21.30;72.90;;;;;;5046809;28;20237;-89
2022/08/05 01:47:24;;;;;;;4.55;4.15;;;21.30;70.40;;;;;;5050304;28;20205;-89
2022/08/05 01:49:53;;;;;;;5.65;4.15;;;21.40;69.20;;;;;;5051559;28;20205;-88
2022/08/05 01:52:22;;;;;;;4.57;4.25;;;21.40;67.00;;;;;;5055226;28;20236;-88
2022/08/05 01:54:54;;;;;;;5.00;4.50;;;21.50;66.60;;;;;;5055559;28;20588;-88
2022/08/05 01:57:28;;;;;;;4.80;4.30;;;21.50;67.80;;;;;;5049286;28;20217;-88
2022/08/05 02:00:04;;;;;;;5.00;4.50;;;21.40;67.60;;;;;;5053482;28;20206;-88
2022/08/05 02:02:33;;;;;;;4.72;4.32;;;21.40;67.60;;;;;;5051991;28;20206;-88
2022/08/05 02:05:04;;;;;;;4.70;4.18;;;21.40;69.30;;;;;;5053726;28;20217;-88
2022/08/05 02:07:32;;;;;;;4.72;4.28;;;21.20;69.80;;;;;;5052531;28;20198;-88
2022/08/05 02:10:00;;;;;;;7.32;4.43;;;21.20;70.80;;;;;;5051278;28;20220;-88
2022/08/05 02:12:34;;;;;;;4.68;4.28;;;21.10;71.30;;;;;;5052785;28;20238;-88
2022/08/05 02:15:08;;;;;;;4.80;4.30;;;21.10;71.20;;;;;;5044710;28;20204;-88
2022/08/05 02:17:40;;;;;;;5.00;4.50;;;21.20;72.30;;;;;;5044440;28;20654;-88
2022/08/05 02:20:14;;;;;;;4.28;3.88;;;21.20;70.40;;;;;;5051488;28;20213;-89
2022/08/05 02:22:44;;;;;;;4.75;4.20;;;21.10;71.10;;;;;;5053050;28;20201;-88
2022/08/05 02:25:17;;;;;;;4.90;4.40;;;21.10;73.70;;;;;;5053785;28;20198;-88
2022/08/05 02:27:47;;;;;;;4.85;4.45;;;21.00;73.80;;;;;;5045584;28;20234;-89
2022/08/05 02:30:17;;;;;;;5.40;4.80;;;21.00;74.20;;;;;;5042391;28;20228;-88
2022/08/05 02:32:48;;;;;;;5.15;4.65;;;21.10;73.50;;;;;;5052149;28;20653;-88
2022/08/05 02:35:19;;;;;;;5.65;4.90;;;21.10;72.40;;;;;;5054143;28;20668;-88
2022/08/05 02:37:47;;;;;;;4.75;4.35;;;21.20;72.20;;;;;;5051752;28;20198;-89
2022/08/05 02:40:16;;;;;;;6.15;4.82;;;21.20;72.60;;;;;;5054297;28;20205;-88
2022/08/05 02:42:44;;;;;;;5.15;4.57;;;21.30;72.60;;;;;;5052030;28;20210;-88
2022/08/05 02:45:12;;;;;;;5.50;5.00;;;21.30;72.20;;;;;;5054599;28;20225;-88
2022/08/05 02:47:42;;;;;;;4.95;4.55;;;21.30;72.40;;;;;;5052215;28;20704;-88
2022/08/05 02:50:13;;;;;;;5.22;4.82;;;21.10;73.20;;;;;;5043044;28;20217;-89
2022/08/05 02:52:41;;;;;;;5.47;5.03;;;21.00;75.10;;;;;;5048217;28;20704;-88
2022/08/05 02:55:09;;;;;;;5.40;4.40;;;21.00;75.40;;;;;;5045893;28;20213;-89
2022/08/05 02:57:38;;;;;;;4.50;4.15;;;20.90;75.60;;;;;;5054995;28;20213;-88
2022/08/05 03:00:07;;;;;;;6.07;4.70;;;21.00;76.00;;;;;;5048907;28;20206;-89
2022/08/05 03:02:37;;;;;;;6.18;4.75;;;21.00;75.50;;;;;;5052334;28;21444;-89
2022/08/05 03:05:08;;;;;;;5.90;4.57;;;20.90;76.60;;;;;;5052445;28;20213;-88
2022/08/05 03:07:35;;;;;;;5.88;4.95;;;20.80;77.30;;;;;;5050752;28;20646;-88
2022/08/05 03:10:02;;;;;;;5.28;4.88;;;20.80;78.00;;;;;;5050168;28;20213;-89
2022/08/05 03:12:30;;;;;;;5.82;5.28;;;20.70;78.30;;;;;;5053266;28;20237;-89
2022/08/05 03:14:57;;;;;;;5.00;4.50;;;20.70;79.40;;;;;;5049759;28;20625;-89
2022/08/05 03:17:24;;;;;;;6.05;4.50;;;20.70;79.70;;;;;;5054042;28;20209;-89
2022/08/05 03:20:00;;;;;;;5.28;4.88;;;20.60;79.90;;;;;;5052545;28;20214;-88
2022/08/05 03:22:28;;;;;;;5.85;4.80;;;20.60;79.70;;;;;;5051859;28;20213;-88
2022/08/05 03:24:56;;;;;;;4.80;4.40;;;20.70;79.40;;;;;;5052112;28;20216;-88
2022/08/05 03:27:24;;;;;;;5.40;5.00;;;20.70;79.70;;;;;;5051033;28;20584;-88
2022/08/05 03:29:51;;;;;;;4.95;4.55;;;20.60;79.80;;;;;;5053228;28;20212;-88
2022/08/05 03:32:19;;;;;;;4.70;4.30;;;20.60;80.30;;;;;;5052678;28;20696;-88
2022/08/05 03:34:46;;;;;;;4.97;4.57;;;20.70;80.10;;;;;;5049571;28;20678;-88
2022/08/05 03:37:13;;;;;;;6.28;4.85;;;20.60;79.10;;;;;;5048468;28;20206;-89
2022/08/05 03:39:54;;;;;;;5.38;4.88;;;20.50;80.20;;;;;;5052519;28;20206;-88
2022/08/05 03:42:21;;;;;;;5.47;4.97;;;20.30;81.00;;;;;;5053143;28;20210;-88
2022/08/05 03:44:48;;;;;;;5.53;4.63;;;20.20;81.00;;;;;;5051469;28;20704;-88
2022/08/05 03:47:18;;;;;;;6.95;4.60;;;20.20;82.10;;;;;;5048441;28;20588;-89
2022/08/05 03:49:45;;;;;;;6.07;4.75;;;20.10;82.90;;;;;;5044468;28;20214;-88
2022/08/05 03:52:20;;;;;;;6.10;4.90;;;20.10;83.00;;;;;;5050959;28;20210;-88
2022/08/05 03:54:53;;;;;;;4.90;4.50;;;20.00;83.30;;;;;;5051240;28;20213;-88
2022/08/05 03:57:28;;;;;;;5.80;5.30;;;20.00;83.90;;;;;;5055727;28;20214;-89
2022/08/05 03:59:58;;;;;;;5.20;4.70;;;20.20;83.30;;;;;;5051699;28;20201;-88
2022/08/05 04:02:29;;;;;;;5.47;4.97;;;20.20;83.50;;;;;;5051767;28;20209;-88
2022/08/05 04:04:58;;;;;;;6.18;5.00;;;20.10;83.60;;;;;;5061687;28;20209;-88
2022/08/05 04:07:26;;;;;;;6.35;4.90;;;20.10;84.30;;;;;;5051829;28;20206;-89
2022/08/05 04:09:54;;;;;;;5.03;4.60;;;20.00;84.70;;;;;;5052034;28;20206;-88
2022/08/05 04:12:23;;;;;;;5.35;4.95;;;20.00;85.40;;;;;;5058352;28;20198;-88
2022/08/05 04:14:54;;;;;;;5.10;4.60;;;20.00;86.70;;;;;;5052559;28;20649;-88
2022/08/05 04:17:21;;;;;;;4.78;4.32;;;20.10;87.20;;;;;;5052569;28;20202;-88
2022/08/05 04:19:49;;;;;;;6.15;5.00;;;20.20;85.50;;;;;;5048106;28;20209;-89
2022/08/05 04:22:15;;;;;;;6.32;4.88;;;20.30;83.20;;;;;;5047231;28;20205;-88
2022/08/05 04:24:44;;;;;;;5.93;4.65;;;20.30;83.70;;;;;;5054906;28;20695;-88
2022/08/05 04:27:12;;;;;;;5.35;4.82;;;20.20;83.80;;;;;;5052494;28;20202;-88
2022/08/05 04:29:41;;;;;;;6.05;4.80;;;20.20;84.60;;;;;;5048629;28;20194;-88
2022/08/05 04:32:08;;;;;;;5.70;4.45;;;20.20;84.50;;;;;;5049230;28;20204;-89
2022/08/05 04:34:36;;;;;;;4.93;4.43;;;20.20;84.40;;;;;;5058519;28;20228;-88
2022/08/05 04:37:03;;;;;;;5.20;4.68;;;20.20;83.90;;;;;;5056365;28;20220;-88
2022/08/05 04:39:30;;;;;;;7.93;4.80;;;20.30;85.40;;;;;;5046911;28;20202;-88
2022/08/05 04:41:58;;;;;;;5.43;4.93;;;20.40;82.90;;;;;;5049191;28;20206;-88
2022/08/05 04:44:30;;;;;;;4.93;4.40;;;20.50;81.60;;;;;;5055012;28;21102;-88
2022/08/05 04:46:58;;;;;;;5.38;4.50;;;20.60;81.20;;;;;;5052392;28;20213;-89
2022/08/05 04:49:25;;;;;;;5.82;4.18;;;20.90;79.50;;;;;;5061400;28;20197;-88
2022/08/05 04:51:52;;;;;;;5.90;4.40;;;21.00;78.10;;;;;;5056961;28;20389;-88
2022/08/05 04:54:20;;;;;;;4.05;3.70;;;21.10;77.20;;;;;;5048722;28;20233;-88
2022/08/05 04:56:47;;;;;;;6.35;3.92;;;21.20;76.40;;;;;;5058669;28;20263;-88
2022/08/05 04:59:15;;;;;;;5.85;4.25;;;21.30;75.80;;;;;;5052738;28;20252;-88
2022/08/05 05:01:42;;;;;;;6.60;4.05;;;21.40;75.10;;;;;;5057205;28;20205;-89
2022/08/05 05:04:10;;;;;;;4.97;4.47;;;21.50;72.90;;;;;;5045950;28;20385;-89
2022/08/05 05:06:37;;;;;;;4.30;3.90;;;21.60;71.40;;;;;;5050572;28;20209;-89
2022/08/05 05:09:04;;;;;;;4.90;4.45;;;21.70;69.80;;;;;;5052691;28;20202;-88
2022/08/05 05:11:31;;;;;;;4.05;3.67;;;21.80;69.20;;;;;;5048448;28;20203;-89
2022/08/05 05:14:00;;;;;;;4.28;3.72;;;21.90;66.70;;;;;;5049401;28;20719;-89
2022/08/05 05:16:26;;;;;;;3.78;3.42;;;22.00;64.70;;;;;;5051600;28;20202;-88
2022/08/05 05:18:53;;;;;;;3.83;3.53;;;22.10;62.40;;;;;;5048668;28;20206;-88
2022/08/05 05:21:21;;;;;;;4.25;3.78;;;22.20;61.30;;;;;;5050197;28;20206;-87
2022/08/05 05:23:48;;;;;;;4.28;3.65;;;22.40;58.30;;;;;;5051937;28;20213;-88
2022/08/05 05:26:15;;;;;;;3.90;3.60;;;22.50;58.20;;;;;;5054901;28;20206;-88
2022/08/05 05:28:42;;;;;;;3.95;3.65;;;22.60;58.30;;;;;;5056496;28;20205;-88
2022/08/05 05:31:09;;;;;;;4.10;3.78;;;22.70;58.40;;;;;;5062893;28;20208;-85
2022/08/05 05:33:36;;;;;;;3.95;3.65;;;22.90;55.70;;;;;;5058216;28;20226;-84
2022/08/05 05:36:02;;;;;;;3.88;3.53;;;23.10;53.70;;;;;;5057559;28;20653;-85
2022/08/05 05:38:31;;;;;;;4.97;3.13;;;23.40;51.50;;;;;;5058249;28;20563;-84
2022/08/05 05:40:58;;;;;;;3.78;3.47;;;23.50;50.60;;;;;;5059424;28;20220;-84
2022/08/05 05:43:25;;;;;;;4.13;3.72;;;23.50;50.10;;;;;;5060160;28;20218;-84
2022/08/05 05:45:52;;;;;;;4.05;3.42;;;23.60;49.90;;;;;;5054274;28;20461;-84
2022/08/05 05:48:18;;;;;;;4.93;3.63;;;23.60;50.70;;;;;;5059104;28;20220;-84
2022/08/05 05:50:45;;;;;;;4.03;3.63;;;23.70;50.20;;;;;;5059104;28;20205;-84
2022/08/05 05:53:14;;;;;;;3.50;3.20;;;23.80;48.40;;;;;;5058195;28;20222;-84
2022/08/05 05:55:42;;;;;;;5.43;3.45;;;24.00;48.10;;;;;;5056861;28;20202;-85
2022/08/05 05:58:09;;;;;;;3.90;3.50;;;24.20;46.80;;;;;;5050830;28;20210;-85
2022/08/05 06:00:35;;;;;;;4.47;3.17;;;24.50;45.40;;;;;;5055171;28;20199;-83
2022/08/05 06:03:06;;;;;;;3.72;3.42;;;24.90;43.00;;;;;;5055208;28;20665;-83
2022/08/05 06:05:33;;;;;;;5.45;3.28;;;25.30;40.90;;;;;;5050564;28;20201;-81
2022/08/05 06:08:00;;;;;;;5.05;3.50;;;25.60;37.80;;;;;;5049069;28;20214;-83
2022/08/05 06:10:30;;;;;;;3.97;3.58;;;25.80;36.70;;;;;;5047611;28;20194;-84
2022/08/05 06:13:01;;;;;;;5.22;3.50;;;25.80;35.00;;;;;;5051660;28;20214;-84
2022/08/05 06:15:28;;;;;;;5.15;3.30;;;25.60;35.00;;;;;;5053434;28;20565;-84
2022/08/05 06:17:55;;;;;;;4.43;3.28;;;25.50;36.50;;;;;;5054177;28;20208;-83
2022/08/05 06:20:30;;;;;;;5.07;3.10;;;25.30;36.40;;;;;;5054069;28;20217;-84
2022/08/05 06:23:12;;;;;;;4.57;3.40;;;25.10;36.30;;;;;;5055986;28;20208;-84
2022/08/05 06:25:50;;;;;;;5.22;3.40;;;25.00;36.20;;;;;;5057790;28;20553;-83
2022/08/05 06:28:18;;;;;;;6.20;3.33;;;24.90;36.20;;;;;;5054539;28;20281;-83
2022/08/05 06:30:45;;;;;;;4.25;3.42;;;24.90;37.10;;;;;;5059540;28;20198;-83
2022/08/05 06:33:12;;;;;;;7.82;3.20;;;25.10;36.40;;;;;;5059880;28;20209;-83
2022/08/05 06:35:39;;;;;;;4.60;3.05;;;25.10;36.30;;;;;;5058371;28;20205;-83
2022/08/05 06:38:06;;;;;;;5.75;3.38;;;25.20;36.40;;;;;;5057731;28;20202;-83
2022/08/05 06:40:33;;;;;;;5.32;3.22;;;25.30;36.40;;;;;;5060482;28;20198;-83
2022/08/05 06:43:00;;;;;;;5.18;3.13;;;25.30;36.40;;;;;;5059111;28;20210;-83
2022/08/05 06:45:28;;;;;;;7.25;3.35;;;25.40;36.40;;;;;;5056731;28;20232;-83
2022/08/05 06:48:00;;;;;;;4.13;3.35;;;25.60;36.60;;;;;;5059331;28;20228;-83
2022/08/05 06:50:59;;;;;;;4.28;3.10;;;25.70;36.70;;;;;;5051451;28;20206;-82
2022/08/05 06:53:36;;;;;;;3.90;3.10;;;26.00;32.40;;;;;;5057070;28;20699;-83
2022/08/05 06:56:04;;;;;;;3.60;3.30;;;26.30;32.20;;;;;;5057613;28;20216;-81
2022/08/05 06:58:31;;;;;;;5.97;3.33;;;26.60;31.40;;;;;;5058311;28;20206;-83
2022/08/05 07:01:02;;;;;;;4.40;3.20;;;26.90;29.00;;;;;;5055845;28;20251;-84
2022/08/05 07:03:31;;;;;;;5.80;3.88;;;27.10;28.10;;;;;;5056516;28;20664;-83
2022/08/05 07:05:58;;;;;;;7.10;3.33;;;27.20;28.80;;;;;;5053369;28;20610;-83
2022/08/05 07:08:26;;;;;;;4.82;3.78;;;27.30;28.30;;;;;;5056121;28;20735;-86
2022/08/05 07:10:53;;;;;;;5.82;3.40;;;27.40;28.80;;;;;;5069221;28;20286;-84
2022/08/05 07:18:50;;;;;;;3.85;3.33;;;27.50;26.00;;;;;;5050981;28;20426;-85
2022/08/05 07:21:17;;;;;;;6.50;3.60;;;27.60;26.10;;;;;;5049272;28;20671;-85
2022/08/05 07:23:44;;;;;;;4.75;3.08;;;27.60;26.10;;;;;;5050225;28;20661;-85
2022/08/05 07:26:11;;;;;;;4.50;3.30;;;27.50;27.10;;;;;;5055661;28;20197;-84
2022/08/05 07:28:38;;;;;;;5.85;3.40;;;27.40;28.20;;;;;;5056875;28;20474;-85
2022/08/05 07:31:06;;;;;;;5.85;3.30;;;27.40;28.10;;;;;;5054037;28;20197;-84
2022/08/05 07:33:33;;;;;;;4.20;3.22;;;27.40;27.40;;;;;;5054882;28;20225;-84
2022/08/05 07:36:00;;;;;;;6.45;3.65;;;27.30;27.80;;;;;;5054568;28;20284;-85
2022/08/05 07:38:30;;;;;;;4.38;3.38;;;27.20;27.80;;;;;;5052595;28;20217;-85
2022/08/05 07:40:57;;;;;;;4.50;3.47;;;27.10;28.40;;;;;;5052403;28;20220;-85
2022/08/05 07:43:23;;;;;;;4.43;3.30;;;27.20;27.60;;;;;;5052841;28;20213;-84
2022/08/05 07:45:50;;;;;;;6.10;3.33;;;27.30;27.70;;;;;;5051801;28;20214;-84
2022/08/05 07:48:19;;;;;;;6.65;3.15;;;27.40;27.20;;;;;;5053523;28;20213;-85
2022/08/05 07:50:45;;;;;;;9.18;3.70;;;27.60;26.10;;;;;;5053023;28;20300;-84
2022/08/05 07:53:12;;;;;;;6.70;3.40;;;27.70;26.10;;;;;;5051828;28;20210;-84
2022/08/05 07:55:39;;;;;;;8.05;3.90;;;27.80;26.20;;;;;;5048920;28;20583;-84
2022/08/05 07:58:12;;;;;;;10.00;3.65;;;27.70;26.10;;;;;;5053247;28;20206;-84
2022/08/05 08:00:39;;;;;;;6.18;3.63;;;27.70;26.60;;;;;;5051484;28;20217;-85
2022/08/05 08:03:10;;;;;;;3.92;3.45;;;27.80;26.20;;;;;;5052244;28;20205;-85
2022/08/05 08:05:38;;;;;;;5.47;3.75;;;28.00;25.80;;;;;;5052963;28;20251;-86
2022/08/05 08:08:05;;;;;;;9.20;3.65;;;28.00;25.90;;;;;;5052115;28;20208;-86
2022/08/05 08:10:36;;;;;;;7.70;3.63;;;27.90;26.20;;;;;;5058984;28;20228;-86
2022/08/05 08:13:06;;;;;;;8.57;3.65;;;27.70;26.10;;;;;;5046120;28;20584;-85
2022/08/05 08:15:35;;;;;;;4.53;3.63;;;27.50;26.00;;;;;;5057325;28;20307;-87
2022/08/05 08:18:02;;;;;;;9.00;3.42;;;27.40;26.00;;;;;;5058462;28;20209;-84
2022/08/05 08:20:30;;;;;;;8.18;3.72;;;27.40;26.00;;;;;;5055123;28;20209;-85
2022/08/05 08:23:01;;;;;;;8.00;3.50;;;27.40;26.10;;;;;;5055597;28;20210;-84
2022/08/05 08:25:28;;;;;;;13.35;3.97;;;27.30;25.90;;;;;;5052796;28;20209;-85
2022/08/05 08:27:55;;;;;;;5.55;3.67;;;27.30;25.90;;;;;;5058578;28;20562;-85
2022/08/05 08:30:22;;;;;;;9.45;4.15;;;27.20;25.80;;;;;;5057768;28;20197;-82
2022/08/05 08:32:49;;;;;;;8.27;3.65;;;27.10;25.40;;;;;;5057153;28;20209;-86
2022/08/05 08:35:16;;;;;;;8.63;4.07;;;27.10;24.90;;;;;;5058322;28;20226;-82
2022/08/05 08:37:46;;;;;;;5.28;3.72;;;27.10;24.70;;;;;;5067379;28;20205;-85
2022/08/05 08:40:19;;;;;;;12.23;4.20;;;27.10;25.40;;;;;;5055467;28;20221;-83
2022/08/05 08:42:50;;;;;;;5.18;4.03;;;27.20;25.10;;;;;;5055159;28;20213;-83
2022/08/05 08:45:20;;;;;;;6.53;4.13;;;27.30;26.10;;;;;;5054974;28;20603;-83
2022/08/05 08:47:51;;;;;;;4.85;4.15;;;27.40;24.80;;;;;;5055165;28;20205;-83
2022/08/05 08:50:19;;;;;;;7.35;4.15;;;27.40;24.80;;;;;;5049941;28;20277;-84
2022/08/05 08:52:50;;;;;;;17.77;10.65;;;27.50;23.50;;;;;;5051708;28;20202;-83
2022/08/05 08:55:19;;;;;;;6.32;4.20;;;27.70;22.50;;;;;;5049016;28;20261;-83
2022/08/05 08:57:47;;;;;;;6.68;4.20;;;28.40;22.10;;;;;;5060032;28;20213;-84
2022/08/05 09:00:15;;;;;;;8.13;4.25;;;29.20;19.80;;;;;;5055367;28;20202;-84
2022/08/05 09:02:43;;;;;;;6.18;4.40;;;30.20;17.20;;;;;;5045509;28;20205;-84
2022/08/05 09:05:11;;;;;;;8.85;4.38;;;31.80;15.50;;;;;;5050536;28;20205;-87
2022/08/05 09:07:38;;;;;;;5.72;4.38;;;33.00;13.20;;;;;;5048047;28;20228;-88
2022/08/05 09:10:06;;;;;;;8.15;4.65;;;33.90;11.40;;;;;;5049064;28;20193;-87
2022/08/05 09:12:34;;;;;;;5.55;4.75;;;34.40;11.00;;;;;;5049513;28;20834;-88
2022/08/05 09:15:02;;;;;;;6.53;4.50;;;35.20;9.60;;;;;;5051571;28;20217;-85
2022/08/05 09:17:33;;;;;;;7.57;4.70;;;35.20;9.60;;;;;;5052008;28;20656;-85
2022/08/05 09:20:01;;;;;;;7.90;4.43;;;35.80;8.60;;;;;;5052573;28;20201;-87
2022/08/05 09:22:28;;;;;;;7.68;4.82;;;36.20;8.20;;;;;;5057269;28;20197;-87
2022/08/05 09:24:59;;;;;;;7.97;4.68;;;36.60;7.50;;;;;;5063213;28;20213;-87
2022/08/05 09:27:36;;;;;;;8.77;4.70;;;36.80;6.90;;;;;;5053714;28;20251;-86
2022/08/05 09:30:05;;;;;;;8.70;5.47;;;37.10;6.60;;;;;;5056375;28;20201;-86
2022/08/05 09:32:36;;;;;;;6.07;4.80;;;37.10;5.90;;;;;;5059376;28;20201;-87
2022/08/05 09:35:11;;;;;;;5.88;5.03;;;36.80;6.70;;;;;;5057016;28;20221;-86
2022/08/05 09:37:50;;;;;;;8.45;4.90;;;36.50;6.20;;;;;;5057218;28;20201;-87
2022/08/05 09:40:31;;;;;;;7.70;4.90;;;37.30;6.20;;;;;;5054091;28;20210;-86
2022/08/05 09:43:00;;;;;;;8.05;5.40;;;37.50;6.00;;;;;;5047764;28;20742;-86
2022/08/05 09:45:38;;;;;;;8.52;5.20;;;37.20;5.60;;;;;;5054201;28;20229;-86
2022/08/05 09:48:30;;;;;;;5.95;4.78;;;37.10;6.70;;;;;;5050859;28;20233;-87
2022/08/05 09:50:58;;;;;;;6.82;4.85;;;37.20;6.40;;;;;;5051578;28;20205;-87
2022/08/05 09:53:47;;;;;;;7.80;4.72;;;37.00;6.60;;;;;;5057919;28;20581;-86
2022/08/05 09:56:13;;;;;;;7.10;5.15;;;36.80;5.90;;;;;;5056280;28;20710;-86
2022/08/05 09:58:42;;;;;;;8.20;4.93;;;36.90;5.70;;;;;;5053382;28;20221;-89
2022/08/05 10:01:13;;;;;;;8.73;4.70;;;37.50;6.10;;;;;;5050696;28;20208;-86
2022/08/05 10:03:39;;;;;;;6.90;4.95;;;37.20;7.20;;;;;;5054917;28;20197;-86
2022/08/05 10:06:08;;;;;;;5.57;5.07;;;37.20;6.10;;;;;;5050156;28;20210;-86
2022/08/05 10:08:37;;;;;;;5.85;4.70;;;36.60;6.40;;;;;;5055516;28;20603;-86
2022/08/05 10:11:12;;;;;;;10.60;4.50;;;35.90;6.80;;;;;;5048756;28;20212;-86
2022/08/05 10:13:39;;;;;;;8.07;5.00;;;35.60;8.60;;;;;;5051931;28;20201;-87
2022/08/05 10:16:29;;;;;;;5.60;4.63;;;35.50;7.80;;;;;;5054841;28;20228;-87
2022/08/05 10:18:56;;;;;;;6.25;4.57;;;35.40;8.40;;;;;;5054452;28;20252;-86
2022/08/05 10:21:24;;;;;;;9.63;4.25;;;35.10;9.50;;;;;;5053483;28;20205;-88
2022/08/05 10:23:50;;;;;;;9.30;4.47;;;34.90;9.40;;;;;;5051924;28;20217;-87
2022/08/05 10:26:17;;;;;;;8.90;4.53;;;35.10;9.30;;;;;;5055142;28;20201;-87
2022/08/05 10:28:46;;;;;;;6.78;4.53;;;36.10;8.30;;;;;;5059946;28;20205;-86
2022/08/05 10:31:16;;;;;;;6.50;4.65;;;35.80;9.20;;;;;;5054709;28;20219;-87
2022/08/05 10:33:43;;;;;;;8.80;4.50;;;35.60;9.60;;;;;;5056619;28;20213;-87
2022/08/05 10:36:10;;;;;;;5.30;4.15;;;34.80;10.30;;;;;;5054016;28;20225;-87
2022/08/05 10:38:41;;;;;;;10.88;5.00;;;35.00;10.10;;;;;;5053007;28;21602;-87
2022/08/05 10:41:13;;;;;;;6.93;4.50;;;35.00;9.50;;;;;;5054431;28;20205;-87
2022/08/05 10:43:49;;;;;;;6.30;4.35;;;35.30;8.40;;;;;;5055152;28;20232;-86
2022/08/05 10:46:20;;;;;;;6.75;3.88;;;36.10;7.10;;;;;;5056242;28;20201;-86
2022/08/05 10:48:48;;;;;;;7.65;4.50;;;36.30;7.60;;;;;;5060000;28;20210;-85
2022/08/05 10:51:16;;;;;;;9.27;4.18;;;36.30;8.30;;;;;;5055473;28;20208;-85
2022/08/05 10:53:45;;;;;;;9.35;4.20;;;36.60;6.30;;;;;;5059106;28;20212;-86
2022/08/05 10:56:20;;;;;;;5.70;4.70;;;36.40;6.30;;;;;;5060538;28;20240;-83
2022/08/05 10:58:49;;;;;;;5.97;4.28;;;35.90;7.10;;;;;;5057383;28;20213;-85
2022/08/05 11:01:18;;;;;;;8.80;4.40;;;35.20;7.30;;;;;;5055763;28;20206;-85
2022/08/05 11:04:06;;;;;;;6.35;4.32;;;35.40;9.70;;;;;;5053365;28;20201;-87
2022/08/05 11:06:34;;;;;;;5.00;4.30;;;36.10;6.80;;;;;;5049575;28;20213;-86
2022/08/05 11:09:36;;;;;;;7.75;4.10;;;35.90;6.50;;;;;;5046236;28;20650;-87
2022/08/05 11:12:05;;;;;;;7.40;4.43;;;35.80;8.90;;;;;;5006019;28;20217;-87
2022/08/05 11:14:35;;;;;;;8.07;4.05;;;34.90;8.60;;;;;;5052637;28;20189;-87
2022/08/05 11:17:38;;;;;;;6.38;3.90;;;34.30;11.40;;;;;;5052216;28;20201;-86
2022/08/05 11:20:49;;;;;;;7.97;3.45;;;33.90;12.50;;;;;;5053163;28;20208;-87
2022/08/05 11:23:43;;;;;;;6.45;4.07;;;33.40;11.80;;;;;;4970880;28;20200;-87
2022/08/05 11:26:21;;;;;;;9.68;4.43;;;32.90;12.70;;;;;;4971304;28;20747;-86
2022/08/05 11:28:50;;;;;;;4.63;3.97;;;32.50;12.20;;;;;;4971978;28;20207;-86
2022/08/05 11:31:31;;;;;;;5.40;3.75;;;32.50;12.20;;;;;;4975508;28;20283;-86
2022/08/05 11:34:04;;;;;;;7.45;3.85;;;32.20;13.70;;;;;;4972095;28;20216;-87
2022/08/05 11:36:51;;;;;;;5.40;4.00;;;32.20;12.80;;;;;;4975367;28;20224;-87
2022/08/05 11:39:47;;;;;;;3.97;3.13;;;32.30;11.90;;;;;;4966261;28;20212;-86
2022/08/05 11:42:16;;;;;;;7.15;3.53;;;32.10;13.30;;;;;;4917538;29;20254;-86
2022/08/05 11:44:44;;;;;;;4.63;3.13;;;32.00;13.30;;;;;;4916773;29;20246;-85
2022/08/05 11:47:12;;;;;;;3.53;3.22;;;31.50;14.30;;;;;;4916276;29;20214;-85
2022/08/05 11:49:41;;;;;;;8.18;3.75;;;31.20;15.80;;;;;;4923198;29;20206;-85
2022/08/05 11:52:09;;;;;;;5.72;3.50;;;31.00;15.50;;;;;;4918159;29;20218;-86
2022/08/05 11:54:37;;;;;;;7.55;3.50;;;31.00;15.10;;;;;;4926019;29;20217;-86
2022/08/05 11:57:05;;;;;;;6.93;3.88;;;31.30;14.20;;;;;;4928368;29;20305;-87
2022/08/05 11:59:33;;;;;;;5.95;3.45;;;31.50;13.90;;;;;;4942088;28;20595;-85
2022/08/05 12:02:01;;;;;;;4.75;3.03;;;31.30;15.10;;;;;;4996814;28;20234;-86
2022/08/05 12:04:36;;;;;;;7.30;3.67;;;31.20;14.90;;;;;;4993074;28;20223;-86
2022/08/05 12:07:06;;;;;;;6.60;3.45;;;31.30;14.80;;;;;;4993151;28;20207;-84
2022/08/05 12:09:37;;;;;;;5.88;3.80;;;31.50;13.90;;;;;;4991543;28;20207;-85
2022/08/05 12:12:05;;;;;;;4.60;3.53;;;31.50;13.50;;;;;;4988134;28;20199;-84
2022/08/05 12:14:37;;;;;;;5.90;3.72;;;31.40;13.70;;;;;;4991283;28;20208;-84
2022/08/05 12:17:07;;;;;;;7.43;3.67;;;31.30;14.10;;;;;;4990616;28;20215;-84
2022/08/05 12:19:41;;;;;;;5.43;3.35;;;31.40;14.40;;;;;;5026919;28;20206;-85
2022/08/05 12:22:11;;;;;;;6.38;3.47;;;31.50;13.20;;;;;;5051181;28;20228;-85
2022/08/05 12:24:41;;;;;;;9.00;3.00;;;31.50;14.20;;;;;;5052842;28;20197;-84
2022/08/05 12:27:09;;;;;;;3.17;2.78;;;31.70;14.40;;;;;;5055256;28;20232;-84
2022/08/05 12:29:42;;;;;;;3.70;3.30;;;31.90;13.90;;;;;;5049514;28;20224;-85
2022/08/05 12:32:09;;;;;;;5.18;3.50;;;32.10;12.40;;;;;;5047181;28;20206;-87
2022/08/05 12:34:43;;;;;;;6.68;3.40;;;32.00;13.20;;;;;;5048712;28;20284;-88
2022/08/05 12:37:11;;;;;;;4.35;3.33;;;31.60;12.60;;;;;;5049238;28;20671;-84
2022/08/05 12:39:39;;;;;;;9.00;3.25;;;31.80;12.70;;;;;;5048309;28;20205;-84
2022/08/05 12:42:19;;;;;;;5.32;3.28;;;31.60;12.70;;;;;;5050720;28;20208;-84
2022/08/05 12:44:49;;;;;;;6.35;3.70;;;31.60;13.60;;;;;;5048007;28;20239;-83
2022/08/05 12:47:28;;;;;;;4.57;3.22;;;31.70;13.00;;;;;;5047826;28;20205;-83
2022/08/05 12:49:55;;;;;;;5.32;3.45;;;31.80;12.90;;;;;;5047206;28;20217;-83
2022/08/05 12:52:24;;;;;;;5.88;3.08;;;31.70;13.30;;;;;;5049444;28;20225;-83
2022/08/05 12:54:50;;;;;;;6.72;3.22;;;31.70;13.50;;;;;;5048448;28;20217;-84
2022/08/05 12:57:19;;;;;;;7.80;3.95;;;32.00;13.90;;;;;;5046963;28;20209;-84
2022/08/05 12:59:48;;;;;;;6.50;3.35;;;32.00;14.00;;;;;;5050170;28;20215;-84
2022/08/05 13:02:21;;;;;;;5.00;3.45;;;32.00;13.90;;;;;;5050303;28;20629;-84
2022/08/05 13:04:49;;;;;;;4.28;3.28;;;32.10;13.60;;;;;;5047748;28;20264;-84
2022/08/05 13:07:19;;;;;;;5.63;3.45;;;32.20;12.10;;;;;;5049789;28;20236;-83
2022/08/05 13:09:51;;;;;;;3.90;3.10;;;31.90;12.10;;;;;;5049339;28;20781;-83